createdAt,value
2022-09-18T00:00:17.984Z,6.20
2022-09-18T00:02:45.614Z,6.20
2022-09-18T00:05:12.988Z,6.20
2022-09-18T00:07:42.721Z,6.20
2022-09-18T00:10:10.268Z,6.10
2022-09-18T00:12:37.633Z,6.00
2022-09-18T00:15:05.737Z,6.10
2022-09-18T00:17:33.972Z,6.20
2022-09-18T00:20:04.674Z,6.20
2022-09-18T00:22:35.898Z,6.20
2022-09-18T00:25:03.958Z,6.20
2022-09-18T00:27:34.776Z,6.20
2022-09-18T00:30:05.466Z,6.30
2022-09-18T00:32:32.949Z,6.30
2022-09-18T00:35:00.420Z,6.30
2022-09-18T00:37:28.291Z,6.20
2022-09-18T00:39:58.136Z,6.20
2022-09-18T00:42:25.794Z,6.30
2022-09-18T00:44:53.186Z,6.10
2022-09-18T00:47:37.697Z,6.20
2022-09-18T00:50:13.070Z,6.20
2022-09-18T00:52:58.930Z,6.20
2022-09-18T00:55:30.994Z,6.20
2022-09-18T00:58:00.997Z,6.20
2022-09-18T01:00:31.953Z,6.20
2022-09-18T01:03:04.349Z,6.20
2022-09-18T01:05:50.656Z,6.20
2022-09-18T01:09:02.133Z,6.30
2022-09-18T01:11:47.682Z,6.20
2022-09-18T01:14:33.314Z,6.20
2022-09-18T01:17:19.026Z,6.20
2022-09-18T01:20:25.602Z,6.20
2022-09-18T01:23:44.714Z,6.30
2022-09-18T01:26:31.002Z,6.30
2022-09-18T01:29:13.955Z,6.20
2022-09-18T01:31:58.935Z,6.30
2022-09-18T01:34:34.357Z,6.30
2022-09-18T01:37:18.287Z,6.40
2022-09-18T01:40:05.007Z,6.50
2022-09-18T01:42:40.242Z,6.50
2022-09-18T01:45:19.320Z,6.70
2022-09-18T01:47:53.259Z,6.50
2022-09-18T01:50:22.503Z,6.50
2022-09-18T01:53:15.050Z,6.60
2022-09-18T01:55:50.735Z,6.60
2022-09-18T01:58:21.520Z,6.60
2022-09-18T02:00:58.431Z,6.50
2022-09-18T02:03:32.211Z,6.60
2022-09-18T02:06:10.819Z,6.80
2022-09-18T02:08:43.985Z,6.60
2022-09-18T02:11:17.077Z,6.70
2022-09-18T02:14:57.057Z,6.70
2022-09-18T02:22:42.494Z,6.80
2022-09-18T02:29:56.985Z,6.80
2022-09-18T02:33:38.024Z,6.70
2022-09-18T02:37:11.132Z,6.80
2022-09-18T02:40:24.086Z,6.80
2022-09-18T02:46:58.631Z,6.80
2022-09-18T02:49:55.336Z,6.80
2022-09-18T02:52:45.000Z,6.80
2022-09-18T02:56:16.869Z,6.90
2022-09-18T02:59:13.481Z,6.90
2022-09-18T03:01:46.199Z,6.90
2022-09-18T03:04:30.541Z,6.90
2022-09-18T03:10:40.014Z,7.10
2022-09-18T03:13:24.478Z,7.00
2022-09-18T03:15:56.013Z,7.00
2022-09-18T03:18:29.393Z,7.00
2022-09-18T03:21:02.369Z,7.00
2022-09-18T03:24:16.258Z,7.00
2022-09-18T03:26:45.886Z,7.00
2022-09-18T03:29:20.517Z,7.00
2022-09-18T03:32:05.218Z,7.00
2022-09-18T03:34:58.733Z,7.10
2022-09-18T03:41:17.578Z,7.10
2022-09-18T03:44:09.640Z,7.00
2022-09-18T03:47:08.754Z,7.10
2022-09-18T03:53:58.807Z,7.10
2022-09-18T04:00:40.702Z,7.20
2022-09-18T04:07:06.959Z,7.20
2022-09-18T04:10:42.260Z,7.20
2022-09-18T04:14:29.300Z,7.10
2022-09-18T04:18:02.753Z,7.20
2022-09-18T04:20:40.042Z,7.30
2022-09-18T04:23:44.435Z,7.20
2022-09-18T04:30:24.824Z,7.30
2022-09-18T04:36:22.775Z,7.20
2022-09-18T04:43:26.907Z,7.20
2022-09-18T04:49:42.243Z,7.30
2022-09-18T04:52:25.379Z,7.30
2022-09-18T04:55:43.024Z,7.40
2022-09-18T05:01:45.817Z,7.40
2022-09-18T05:04:25.547Z,7.40
2022-09-18T05:07:25.616Z,7.40
2022-09-18T05:10:28.160Z,7.40
2022-09-18T05:13:24.624Z,7.50
2022-09-18T05:21:34.076Z,7.40
2022-09-18T05:28:33.768Z,7.30
2022-09-18T05:31:52.787Z,7.30
2022-09-18T06:01:28.722Z,7.40
2022-09-18T06:05:13.285Z,7.40
2022-09-18T06:07:41.333Z,7.60
2022-09-18T06:10:36.214Z,7.50
2022-09-18T06:19:15.966Z,7.50
2022-09-18T06:21:22.401Z,7.50
2022-09-18T06:33:19.807Z,7.50
2022-09-18T06:43:03.202Z,7.40
2022-09-18T06:46:22.775Z,7.50
2022-09-18T06:49:58.499Z,7.50
2022-09-18T06:54:18.707Z,7.40
2022-09-18T06:57:46.800Z,7.50
2022-09-18T07:01:23.770Z,7.50
2022-09-18T07:07:49.839Z,7.60
2022-09-18T07:10:48.615Z,7.60
2022-09-18T07:13:16.197Z,7.60
2022-09-18T07:15:50.155Z,7.70
2022-09-18T07:18:18.024Z,7.70
2022-09-18T07:20:53.756Z,7.60
2022-09-18T07:24:12.015Z,7.70
2022-09-18T07:26:40.131Z,7.60
2022-09-18T07:29:10.329Z,7.60
2022-09-18T07:34:59.263Z,7.70
2022-09-18T07:37:43.536Z,7.70
2022-09-18T07:40:20.734Z,7.90
2022-09-18T07:43:15.187Z,7.90
2022-09-18T07:45:52.471Z,7.90
2022-09-18T07:48:19.951Z,8.00
2022-09-18T07:50:57.195Z,8.00
2022-09-18T07:54:07.967Z,8.00
2022-09-18T07:57:01.217Z,8.00
2022-09-18T07:59:46.564Z,8.00
2022-09-18T08:02:14.239Z,8.00
2022-09-18T08:04:45.712Z,8.00
2022-09-18T08:07:51.087Z,8.00
2022-09-18T08:10:44.777Z,8.00
2022-09-18T08:13:32.201Z,8.00
2022-09-18T08:16:37.927Z,8.00
2022-09-18T08:19:24.540Z,8.00
2022-09-18T08:27:05.709Z,8.00
2022-09-18T08:29:58.761Z,8.10
2022-09-18T08:33:50.812Z,8.10
2022-09-18T08:49:03.169Z,8.10
2022-09-18T08:56:17.450Z,8.10
2022-09-18T09:00:14.254Z,8.30
2022-09-18T09:07:10.801Z,8.40
2022-09-18T09:10:55.246Z,8.40
2022-09-18T09:17:14.906Z,8.40
2022-09-18T09:20:24.078Z,8.40
2022-09-18T09:26:48.326Z,8.40
2022-09-18T09:29:46.336Z,8.40
2022-09-18T09:33:18.298Z,8.50
2022-09-18T09:36:36.613Z,8.40
2022-09-18T10:10:55.669Z,9.00
2022-09-18T10:26:09.096Z,8.80
2022-09-18T10:42:05.462Z,8.90
2022-09-18T10:45:01.638Z,9.00
2022-09-18T10:47:33.196Z,8.90
2022-09-18T10:50:11.268Z,9.10
2022-09-18T10:52:46.712Z,9.00
2022-09-18T10:55:26.992Z,9.00
2022-09-18T10:58:25.352Z,9.10
2022-09-18T11:01:06.961Z,9.10
2022-09-18T11:03:51.906Z,9.10
2022-09-18T11:13:58.566Z,9.10
2022-09-18T11:17:26.987Z,9.30
2022-09-18T11:20:23.301Z,9.40
2022-09-18T11:24:19.561Z,9.30
2022-09-18T11:27:42.077Z,9.40
2022-09-18T11:30:39.097Z,9.40
2022-09-18T11:33:35.757Z,9.30
2022-09-18T11:36:43.401Z,9.30
2022-09-18T11:39:34.285Z,9.30
2022-09-18T12:20:16.622Z,9.70
2022-09-18T12:23:56.512Z,9.60
2022-09-18T12:28:12.428Z,9.60
2022-09-18T12:36:21.303Z,9.80
2022-09-18T12:39:53.140Z,10.00
2022-09-18T13:02:52.121Z,10.20
2022-09-18T13:14:11.070Z,10.00
2022-09-18T13:20:39.248Z,10.00
2022-09-18T13:46:26.239Z,9.70
2022-09-18T13:50:22.860Z,9.70
2022-09-18T13:53:55.514Z,9.70
2022-09-18T13:56:55.274Z,9.80
2022-09-18T13:59:53.132Z,10.00
2022-09-18T14:06:32.304Z,10.20
2022-09-18T14:06:54.479Z,10.40
2022-09-18T14:11:14.048Z,10.60
2022-09-18T14:18:24.666Z,10.70
2022-09-18T14:21:16.920Z,11.00
2022-09-18T14:23:46.906Z,11.00
2022-09-18T14:26:29.422Z,11.00
2022-09-18T14:29:55.758Z,11.00
2022-09-18T14:34:01.124Z,11.00
2022-09-18T14:36:47.030Z,11.00
2022-09-18T14:43:52.911Z,10.90
2022-09-18T14:47:24.423Z,10.80
2022-09-18T14:49:55.731Z,10.80
2022-09-18T14:52:42.776Z,10.70
2022-09-18T14:55:29.636Z,10.70
2022-09-18T14:58:36.485Z,10.70
2022-09-18T15:01:28.925Z,10.70
2022-09-18T15:21:35.727Z,10.60
2022-09-18T15:28:52.004Z,10.50
2022-09-18T15:33:26.701Z,10.40
2022-09-18T15:36:02.371Z,10.40
2022-09-18T15:39:21.548Z,10.40
2022-09-18T15:41:52.085Z,10.40
2022-09-18T15:44:51.846Z,10.40
2022-09-18T15:47:32.580Z,10.40
2022-09-18T15:50:01.806Z,10.40
2022-09-18T15:52:37.622Z,10.40
2022-09-18T15:55:12.444Z,10.30
2022-09-18T15:57:51.561Z,10.40
2022-09-18T16:00:21.186Z,10.30
2022-09-18T16:03:02.887Z,10.30
2022-09-18T16:05:32.071Z,10.20
2022-09-18T16:08:00.827Z,10.20
2022-09-18T16:10:34.168Z,10.30
2022-09-18T16:13:06.315Z,10.20
2022-09-18T16:15:36.731Z,10.20
2022-09-18T16:18:15.960Z,10.10
2022-09-18T16:21:01.682Z,10.10
2022-09-18T16:23:51.614Z,10.20
2022-09-18T16:26:28.274Z,10.20
2022-09-18T16:28:58.851Z,10.20
2022-09-18T16:31:45.199Z,10.10
2022-09-18T16:34:47.334Z,10.20
2022-09-18T16:37:17.292Z,10.10
2022-09-18T16:39:44.868Z,10.10
2022-09-18T16:42:18.738Z,10.00
2022-09-18T16:44:46.368Z,10.00
2022-09-18T16:47:15.541Z,10.00
2022-09-18T16:49:46.532Z,10.00
2022-09-18T16:52:53.180Z,10.00
2022-09-18T16:55:22.496Z,10.00
2022-09-18T16:57:52.163Z,10.00
2022-09-18T17:00:19.767Z,10.00
2022-09-18T17:02:50.605Z,10.00
2022-09-18T17:05:18.333Z,10.00
2022-09-18T17:07:46.070Z,10.00
2022-09-18T17:10:15.795Z,9.90
2022-09-18T17:12:49.399Z,9.90
2022-09-18T17:15:16.889Z,10.00
2022-09-18T17:17:45.505Z,9.80
2022-09-18T17:20:18.891Z,9.80
2022-09-18T17:22:52.074Z,9.80
2022-09-18T17:25:19.614Z,9.80
2022-09-18T17:27:50.708Z,9.80
2022-09-18T17:30:20.600Z,10.00
2022-09-18T17:32:48.545Z,9.80
2022-09-18T17:35:17.132Z,9.80
2022-09-18T17:37:44.663Z,9.80
2022-09-18T17:40:12.371Z,9.80
2022-09-18T17:42:39.780Z,9.80
2022-09-18T17:45:09.152Z,9.80
2022-09-18T17:47:36.561Z,9.70
2022-09-18T17:50:05.452Z,9.70
2022-09-18T17:53:04.868Z,9.70
2022-09-18T17:55:33.358Z,9.70
2022-09-18T17:58:00.693Z,9.70
2022-09-18T18:00:28.182Z,9.80
2022-09-18T18:02:55.785Z,9.70
2022-09-18T18:05:23.698Z,9.60
2022-09-18T18:07:51.054Z,9.60
2022-09-18T18:10:18.750Z,9.60
2022-09-18T18:12:46.081Z,9.50
2022-09-18T18:15:13.952Z,9.60
2022-09-18T18:17:42.971Z,9.60
2022-09-18T18:20:10.618Z,9.60
2022-09-18T18:22:38.060Z,9.60
2022-09-18T18:25:06.606Z,9.60
2022-09-18T18:27:34.151Z,9.60
2022-09-18T18:30:01.734Z,9.60
2022-09-18T18:32:29.268Z,9.60
2022-09-18T18:34:56.799Z,9.60
2022-09-18T18:37:24.230Z,9.60
2022-09-18T18:39:51.690Z,9.60
2022-09-18T18:42:19.042Z,9.60
2022-09-18T18:44:46.536Z,9.50
2022-09-18T18:47:13.947Z,9.60
2022-09-18T18:49:41.267Z,9.60
2022-09-18T18:52:09.394Z,9.60
2022-09-18T18:54:36.722Z,9.50
2022-09-18T18:57:08.778Z,9.60
2022-09-18T18:59:36.098Z,9.50
2022-09-18T19:02:03.455Z,9.50
2022-09-18T19:04:30.881Z,9.50
2022-09-18T19:06:58.713Z,9.60
2022-09-18T19:09:28.431Z,9.50
2022-09-18T19:11:56.157Z,9.50
2022-09-18T19:14:25.927Z,9.60
2022-09-18T19:16:54.627Z,9.50
2022-09-18T19:19:24.399Z,9.50
2022-09-18T19:21:53.023Z,9.50
2022-09-18T19:24:21.335Z,9.50
2022-09-18T19:26:49.206Z,9.50
2022-09-18T19:29:18.922Z,9.50
2022-09-18T19:31:47.585Z,9.50
2022-09-18T19:34:18.002Z,9.50
2022-09-18T19:36:47.895Z,9.50
2022-09-18T19:39:15.975Z,9.50
2022-09-18T19:41:53.109Z,9.50
2022-09-18T19:44:38.781Z,9.50
2022-09-18T19:47:26.351Z,9.50
2022-09-18T19:49:55.392Z,9.40
2022-09-18T19:52:33.127Z,9.40
2022-09-18T19:55:00.439Z,9.40
2022-09-18T19:57:28.515Z,9.30
2022-09-18T19:59:57.108Z,9.30
2022-09-18T20:02:25.382Z,9.30
2022-09-18T20:04:52.748Z,9.30
2022-09-18T20:07:20.280Z,9.30
2022-09-18T20:09:47.660Z,9.30
2022-09-18T20:12:15.232Z,9.20
2022-09-18T20:14:42.568Z,9.30
2022-09-18T20:17:10.030Z,9.30
2022-09-18T20:19:37.789Z,9.30
2022-09-18T20:23:13.733Z,9.30
2022-09-18T20:25:41.081Z,9.30
2022-09-18T20:28:08.514Z,9.40
2022-09-18T20:30:38.370Z,9.30
2022-09-18T20:33:05.978Z,9.30
2022-09-18T20:35:36.242Z,9.40
2022-09-18T20:38:05.264Z,9.40
2022-09-18T20:40:33.007Z,9.40
2022-09-18T20:43:04.247Z,9.40
2022-09-18T20:45:31.587Z,9.40
2022-09-18T20:47:59.567Z,9.40
2022-09-18T20:50:27.634Z,9.40
2022-09-18T20:53:30.853Z,9.40
2022-09-18T20:56:04.596Z,9.40
2022-09-18T20:58:33.911Z,9.40
2022-09-18T21:01:13.011Z,9.40
2022-09-18T21:03:43.160Z,9.40
2022-09-18T21:06:23.300Z,9.30
2022-09-18T21:08:53.598Z,9.40
2022-09-18T21:11:23.912Z,9.30
2022-09-18T21:13:53.796Z,9.40
2022-09-18T21:16:22.299Z,9.40
2022-09-18T21:18:50.649Z,9.40
2022-09-18T21:21:18.073Z,9.40
2022-09-18T21:24:17.997Z,9.30
2022-09-18T21:26:47.857Z,9.40
2022-09-18T21:29:21.170Z,9.40
2022-09-18T21:31:51.314Z,9.40
2022-09-18T21:34:30.954Z,9.50
2022-09-18T21:37:08.119Z,9.50
2022-09-18T21:39:35.842Z,9.60
2022-09-18T21:42:07.254Z,9.50
2022-09-18T21:44:37.760Z,9.60
2022-09-18T21:47:08.040Z,9.50
2022-09-18T21:49:36.159Z,9.50
2022-09-18T21:52:40.779Z,9.60
2022-09-18T21:55:08.604Z,9.70
2022-09-18T21:57:36.865Z,9.70
2022-09-18T22:00:07.408Z,9.70
2022-09-18T22:02:43.143Z,9.70
2022-09-18T22:05:11.989Z,9.70
2022-09-18T22:07:39.189Z,9.70
2022-09-18T22:10:07.350Z,9.70
2022-09-18T22:12:38.850Z,9.70
2022-09-18T22:15:06.397Z,9.60
2022-09-18T22:17:33.627Z,9.60
2022-09-18T22:20:01.005Z,9.60
2022-09-18T22:22:32.901Z,9.50
2022-09-18T22:25:03.432Z,9.50
2022-09-18T22:27:30.862Z,9.50
2022-09-18T22:29:58.261Z,9.60
2022-09-18T22:32:25.822Z,9.60
2022-09-18T22:34:53.388Z,9.60
2022-09-18T22:37:20.974Z,9.50
2022-09-18T22:39:48.382Z,9.30
2022-09-18T22:42:15.855Z,9.00
2022-09-18T22:44:43.444Z,8.80
2022-09-18T22:47:10.946Z,8.70
2022-09-18T22:49:38.393Z,8.50
2022-09-18T22:52:05.938Z,8.40
2022-09-18T22:54:33.335Z,8.30
2022-09-18T22:57:00.766Z,8.30
2022-09-18T22:59:31.260Z,8.20
2022-09-18T23:02:07.868Z,8.20
2022-09-18T23:04:42.125Z,8.10
2022-09-18T23:07:09.699Z,8.10
2022-09-18T23:09:37.740Z,8.10
2022-09-18T23:12:07.052Z,8.20
2022-09-18T23:14:34.988Z,8.10
2022-09-18T23:17:04.687Z,8.00
2022-09-18T23:19:34.211Z,8.00
2022-09-18T23:26:41.841Z,8.00
2022-09-18T23:29:15.056Z,7.90
2022-09-18T23:31:52.856Z,7.90
2022-09-18T23:34:23.519Z,7.90
2022-09-18T23:39:40.125Z,8.00
2022-09-18T23:42:08.878Z,7.90
2022-09-18T23:47:24.448Z,7.90
2022-09-18T23:49:51.984Z,7.90
2022-09-18T23:52:29.816Z,8.00
2022-09-18T23:55:02.616Z,8.00
2022-09-18T23:57:48.528Z,8.00
